createdAt,value
2018-01-31T01:54:05.232Z,25.73
2018-01-31T01:56:33.805Z,27.90
2018-01-31T02:16:19.093Z,27.33
2018-01-31T02:21:33.057Z,29.17
2018-01-31T02:24:01.301Z,27.33
2018-01-31T02:26:30.760Z,28.77
2018-01-31T02:28:59.089Z,28.73
2018-01-31T02:31:27.475Z,38.10
2018-01-31T02:33:57.073Z,32.57
2018-01-31T02:53:41.960Z,36.53
2018-01-31T02:56:11.235Z,34.30
2018-01-31T02:58:39.607Z,35.50
2018-01-31T03:03:59.062Z,36.47
2018-01-31T03:06:28.253Z,29.60
2018-01-31T03:08:57.516Z,29.90
2018-01-31T03:11:26.337Z,30.30
2018-01-31T03:31:12.268Z,32.33
2018-01-31T03:33:41.113Z,26.93
2018-01-31T03:36:09.729Z,28.00
2018-01-31T03:38:39.298Z,30.70
2018-01-31T03:41:08.617Z,29.47
2018-01-31T03:43:37.202Z,28.13
2018-01-31T03:46:06.087Z,27.30
2018-01-31T03:48:35.393Z,30.07
2018-01-31T03:51:04.151Z,30.10
2018-01-31T04:10:49.796Z,31.10
2018-01-31T04:13:18.351Z,29.07
2018-01-31T04:15:47.006Z,34.30
2018-01-31T04:18:15.253Z,31.87
2018-01-31T04:20:44.373Z,34.60
2018-01-31T04:23:13.668Z,35.50
2018-01-31T04:25:41.873Z,31.37
2018-01-31T04:28:11.837Z,35.50
2018-01-31T04:30:40.327Z,34.00
2018-01-31T04:50:27.764Z,48.93
2018-01-31T04:52:55.850Z,40.63
2018-01-31T04:55:24.530Z,45.43
2018-01-31T04:57:52.935Z,43.60
2018-01-31T05:00:21.778Z,43.40
2018-01-31T05:02:51.584Z,44.63
2018-01-31T05:05:21.221Z,44.70
2018-01-31T05:07:49.918Z,44.60
2018-01-31T05:10:18.442Z,53.07
2018-01-31T05:30:03.138Z,60.27
2018-01-31T05:32:31.911Z,56.87
2018-01-31T05:35:00.130Z,55.88
2018-01-31T05:37:29.223Z,53.20
2018-01-31T05:39:57.650Z,59.67
2018-01-31T05:42:27.502Z,57.33
2018-01-31T05:44:56.563Z,61.20
2018-01-31T05:47:26.105Z,61.65
2018-01-31T05:49:54.830Z,58.38
2018-01-31T06:09:41.121Z,59.30
2018-01-31T06:12:10.501Z,60.90
2018-01-31T06:14:40.053Z,51.05
2018-01-31T06:17:08.430Z,59.35
2018-01-31T06:19:37.167Z,68.22
2018-01-31T06:22:06.677Z,64.43
2018-01-31T06:24:35.446Z,57.08
2018-01-31T06:27:04.283Z,68.03
2018-01-31T06:29:32.780Z,65.00
2018-01-31T06:49:17.352Z,65.68
2018-01-31T06:51:46.045Z,61.37
2018-01-31T06:54:15.926Z,75.27
2018-01-31T06:56:44.890Z,62.50
2018-01-31T06:59:15.076Z,62.90
2018-01-31T07:01:44.168Z,60.50
2018-01-31T07:04:13.394Z,53.37
2018-01-31T07:06:42.135Z,52.30
2018-01-31T07:09:11.260Z,50.88
2018-01-31T07:28:56.025Z,48.13
2018-01-31T07:31:25.597Z,55.40
2018-01-31T07:33:54.805Z,45.30
2018-01-31T07:36:23.505Z,40.93
2018-01-31T07:38:52.495Z,40.73
2018-01-31T07:41:21.769Z,38.27
2018-01-31T07:43:50.246Z,37.30
2018-01-31T07:46:20.034Z,42.70
2018-01-31T07:48:48.206Z,38.50
2018-01-31T08:08:32.286Z,27.53
2018-01-31T08:11:01.491Z,25.40
2018-01-31T08:13:30.122Z,27.50
2018-01-31T08:15:58.776Z,24.90
2018-01-31T08:18:26.832Z,28.13
2018-01-31T08:20:56.297Z,26.87
2018-01-31T08:23:25.221Z,20.27
2018-01-31T08:25:54.224Z,23.73
2018-01-31T08:28:22.944Z,26.63
2018-01-31T08:48:10.492Z,26.17
2018-01-31T08:50:40.136Z,21.40
2018-01-31T08:53:08.740Z,18.30
2018-01-31T08:55:37.746Z,16.10
2018-01-31T08:58:06.322Z,17.93
2018-01-31T09:00:35.827Z,15.23
2018-01-31T09:03:04.698Z,14.97
2018-01-31T09:05:33.328Z,11.70
2018-01-31T09:08:02.574Z,12.83
2018-01-31T09:27:48.158Z,17.27
2018-01-31T09:30:17.800Z,15.43
2018-01-31T09:32:46.353Z,14.00
2018-01-31T09:35:15.529Z,11.30
2018-01-31T09:37:44.518Z,21.03
2018-01-31T09:40:13.702Z,14.63
2018-01-31T09:42:42.414Z,14.43
2018-01-31T09:45:14.801Z,14.60
2018-01-31T09:47:43.425Z,15.70
2018-01-31T10:08:52.410Z,11.60
2018-01-31T10:11:20.597Z,12.10
2018-01-31T10:13:49.245Z,11.17
2018-01-31T10:16:17.435Z,15.27
2018-01-31T10:18:45.965Z,13.10
2018-01-31T10:21:14.129Z,10.33
2018-01-31T10:23:42.542Z,11.97
2018-01-31T10:26:10.890Z,13.40
2018-01-31T10:28:39.060Z,12.43
2018-01-31T10:48:23.855Z,14.20
2018-01-31T10:50:52.271Z,11.10
2018-01-31T10:53:20.560Z,12.50
2018-01-31T10:58:17.581Z,10.83
2018-01-31T11:00:47.575Z,10.47
2018-01-31T11:03:17.014Z,10.20
2018-01-31T11:05:45.499Z,10.00
2018-01-31T11:08:13.972Z,11.47
2018-01-31T11:27:59.364Z,16.50
2018-01-31T11:30:28.452Z,11.53
2018-01-31T11:32:57.116Z,12.13
2018-01-31T11:35:26.376Z,11.67
2018-01-31T11:37:55.254Z,15.03
2018-01-31T11:40:23.944Z,15.20
2018-01-31T11:42:52.494Z,12.30
2018-01-31T11:45:20.931Z,12.80
2018-01-31T11:47:49.228Z,11.40
2018-01-31T12:07:32.652Z,11.43
2018-01-31T12:10:02.433Z,12.43
2018-01-31T12:12:31.703Z,10.10
2018-01-31T12:15:01.055Z,13.10
2018-01-31T12:17:30.855Z,10.93
2018-01-31T12:19:59.331Z,11.83
2018-01-31T12:22:28.075Z,12.73
2018-01-31T12:24:56.631Z,10.10
2018-01-31T12:27:26.178Z,13.93
2018-01-31T12:47:12.413Z,11.30
2018-01-31T12:49:40.830Z,17.80
2018-01-31T12:52:09.998Z,13.07
2018-01-31T12:54:38.979Z,14.10
2018-01-31T12:57:08.438Z,12.03
2018-01-31T12:59:36.667Z,13.70
2018-01-31T13:02:06.057Z,15.47
2018-01-31T13:04:34.833Z,13.03
2018-01-31T13:07:03.717Z,18.63
2018-01-31T13:26:50.351Z,14.17
2018-01-31T13:29:20.294Z,14.17
2018-01-31T13:31:49.203Z,16.87
2018-01-31T13:34:18.310Z,15.17
2018-01-31T13:36:48.031Z,18.90
2018-01-31T13:39:16.627Z,17.73
2018-01-31T13:41:45.645Z,17.73
2018-01-31T13:44:15.652Z,18.10
2018-01-31T13:46:43.819Z,24.87
2018-01-31T14:06:28.043Z,13.30
2018-01-31T14:08:57.571Z,14.40
2018-01-31T14:11:26.697Z,13.60
2018-01-31T14:13:56.375Z,12.73
2018-01-31T14:16:26.215Z,12.90
2018-01-31T14:18:55.125Z,11.40
2018-01-31T14:21:23.904Z,13.00
2018-01-31T14:23:52.713Z,16.90
2018-01-31T14:26:21.619Z,14.43
2018-01-31T14:46:07.317Z,16.47
2018-01-31T14:48:36.480Z,15.00
2018-01-31T14:51:04.990Z,18.30
2018-01-31T14:53:33.091Z,15.30
2018-01-31T14:56:01.315Z,17.07
2018-01-31T14:58:30.740Z,14.17
2018-01-31T15:00:58.769Z,16.80
2018-01-31T15:03:27.022Z,18.93
2018-01-31T15:05:56.449Z,15.43
2018-01-31T15:25:42.378Z,18.33
2018-01-31T15:28:11.510Z,17.03
2018-01-31T15:30:40.250Z,19.30
2018-01-31T15:33:08.436Z,17.37
2018-01-31T15:35:36.925Z,16.00
2018-01-31T15:38:05.185Z,18.60
2018-01-31T15:40:33.833Z,16.47
2018-01-31T15:43:02.994Z,17.50
2018-01-31T15:45:32.108Z,15.53
2018-01-31T16:05:18.980Z,19.53
2018-01-31T16:07:48.704Z,20.70
2018-01-31T16:10:17.781Z,20.20
2018-01-31T16:12:46.095Z,22.27
2018-01-31T16:15:15.258Z,28.67
2018-01-31T16:17:44.410Z,21.60
2018-01-31T16:20:13.695Z,20.57
2018-01-31T16:22:42.102Z,26.07
2018-01-31T16:25:11.619Z,24.33
2018-01-31T16:44:59.499Z,12.00
2018-01-31T16:47:27.979Z,17.10
2018-01-31T16:49:57.750Z,19.30
2018-01-31T16:52:26.178Z,15.13
2018-01-31T16:54:54.371Z,16.40
2018-01-31T16:57:23.044Z,13.27
2018-01-31T16:59:51.798Z,14.33
2018-01-31T17:02:20.781Z,15.67
2018-01-31T17:04:49.897Z,15.87
2018-01-31T17:24:34.816Z,15.10
2018-01-31T17:27:03.767Z,12.47
2018-01-31T17:29:32.595Z,15.67
2018-01-31T17:32:01.267Z,15.80
2018-01-31T17:34:29.801Z,15.07
2018-01-31T17:36:58.621Z,15.63
2018-01-31T17:39:27.334Z,14.67
2018-01-31T17:41:56.859Z,17.50
2018-01-31T17:44:25.802Z,14.83
2018-01-31T18:04:11.020Z,18.70
2018-01-31T18:06:41.327Z,22.83
2018-01-31T18:09:09.735Z,20.93
2018-01-31T18:11:38.908Z,19.00
2018-01-31T18:14:08.922Z,13.50
2018-01-31T18:16:38.558Z,19.43
2018-01-31T18:19:07.175Z,16.07
2018-01-31T18:21:36.279Z,16.70
2018-01-31T18:24:05.536Z,14.60
2018-01-31T18:43:50.426Z,11.87
2018-01-31T18:46:19.247Z,15.90
2018-01-31T18:48:47.660Z,18.00
2018-01-31T18:51:16.452Z,18.10
2018-01-31T18:53:44.892Z,18.13
2018-01-31T18:56:13.165Z,18.07
2018-01-31T18:58:42.558Z,15.00
2018-01-31T19:01:11.681Z,14.07
2018-01-31T19:03:40.769Z,12.93
2018-01-31T19:23:26.743Z,21.83
2018-01-31T19:25:55.804Z,13.57
2018-01-31T19:28:24.765Z,16.87
2018-01-31T19:30:53.159Z,17.43
2018-01-31T19:33:22.236Z,17.33
2018-01-31T19:35:50.500Z,15.80
2018-01-31T19:38:19.183Z,19.00
2018-01-31T19:40:47.654Z,18.50
2018-01-31T19:43:16.665Z,14.03
2018-01-31T20:03:01.682Z,12.77
2018-01-31T20:05:29.944Z,13.10
2018-01-31T20:07:58.546Z,16.07
2018-01-31T20:10:26.914Z,15.93
2018-01-31T20:12:56.314Z,13.90
2018-01-31T20:15:26.409Z,11.80
2018-01-31T20:17:55.861Z,16.70
2018-01-31T20:20:24.161Z,11.00
2018-01-31T20:22:52.488Z,11.73
2018-01-31T20:42:37.727Z,10.60
2018-01-31T20:45:06.908Z,10.30
2018-01-31T20:47:36.597Z,12.37
2018-01-31T20:50:04.942Z,10.73
2018-01-31T20:52:34.016Z,11.10
2018-01-31T20:55:03.251Z,11.67
2018-01-31T20:57:32.450Z,9.83
2018-01-31T21:00:01.912Z,12.57
2018-01-31T21:02:30.457Z,9.90
2018-01-31T21:22:15.091Z,8.60
2018-01-31T21:24:43.815Z,11.13
2018-01-31T21:27:12.658Z,9.60
2018-01-31T21:29:42.062Z,12.03
2018-01-31T21:32:11.022Z,9.67
2018-01-31T21:34:40.332Z,9.10
2018-01-31T21:37:09.213Z,14.13
2018-01-31T21:39:37.585Z,10.40
2018-01-31T21:42:06.672Z,11.13
2018-01-31T22:01:51.493Z,9.20
2018-01-31T22:04:20.331Z,11.00
2018-01-31T22:06:48.930Z,8.03
2018-01-31T22:09:18.543Z,7.90
2018-01-31T22:11:47.159Z,6.50
2018-01-31T22:14:16.673Z,7.40
2018-01-31T22:16:44.898Z,7.33
2018-01-31T22:19:14.113Z,6.03
2018-01-31T22:21:42.652Z,7.10
2018-01-31T22:41:28.652Z,5.10
2018-01-31T22:43:56.832Z,8.00
2018-01-31T22:46:25.377Z,8.37
2018-01-31T22:48:55.014Z,6.07
2018-01-31T22:51:23.932Z,6.70
2018-01-31T22:53:54.120Z,6.90
2018-01-31T22:56:22.519Z,7.90
2018-01-31T22:58:51.818Z,10.70
2018-01-31T23:01:21.236Z,4.97
2018-01-31T23:21:07.313Z,3.37
2018-01-31T23:23:36.614Z,2.80
2018-01-31T23:26:05.830Z,5.07
2018-01-31T23:28:35.362Z,3.20
2018-01-31T23:31:04.465Z,3.07
2018-01-31T23:33:33.188Z,3.70
2018-01-31T23:36:02.658Z,3.57
2018-01-31T23:38:31.722Z,4.20
2018-01-31T23:41:01.636Z,3.40
